sensor_id;sensor_type;location;lat;lon;timestamp;temperature;humidity
14095;DHT22;18096;48.142;16.290;2022-12-15T00:00:42;1.80;99.90
14095;DHT22;18096;48.142;16.290;2022-12-15T00:03:27;1.80;99.90
14095;DHT22;18096;48.142;16.290;2022-12-15T00:06:11;1.70;99.90
14095;DHT22;18096;48.142;16.290;2022-12-15T00:08:55;1.60;99.90
14095;DHT22;18096;48.142;16.290;2022-12-15T00:11:40;1.70;99.90
14095;DHT22;18096;48.142;16.290;2022-12-15T00:14:24;1.70;99.90
14095;DHT22;18096;48.142;16.290;2022-12-15T00:17:08;1.80;99.90
14095;DHT22;18096;48.142;16.290;2022-12-15T00:19:53;1.80;99.90
14095;DHT22;18096;48.142;16.290;2022-12-15T00:22:37;1.90;99.90
14095;DHT22;18096;48.142;16.290;2022-12-15T00:25:21;1.80;99.90
14095;DHT22;18096;48.142;16.290;2022-12-15T00:28:06;1.70;99.90
14095;DHT22;18096;48.142;16.290;2022-12-15T00:30:50;1.70;99.90
14095;DHT22;18096;48.142;16.290;2022-12-15T00:33:34;1.70;99.90
14095;DHT22;18096;48.142;16.290;2022-12-15T00:36:18;1.80;99.90
14095;DHT22;18096;48.142;16.290;2022-12-15T00:39:03;1.70;99.90
14095;DHT22;18096;48.142;16.290;2022-12-15T00:41:29;1.80;99.90
14095;DHT22;18096;48.142;16.290;2022-12-15T00:43:54;1.90;99.90
14095;DHT22;18096;48.142;16.290;2022-12-15T00:46:20;1.90;99.90
14095;DHT22;18096;48.142;16.290;2022-12-15T00:49:04;1.90;99.90
14095;DHT22;18096;48.142;16.290;2022-12-15T00:51:50;1.80;99.90
14095;DHT22;18096;48.142;16.290;2022-12-15T00:54:34;1.80;99.90
14095;DHT22;18096;48.142;16.290;2022-12-15T00:57:19;1.80;99.90
14095;DHT22;18096;48.142;16.290;2022-12-15T01:00:04;1.80;99.90
14095;DHT22;18096;48.142;16.290;2022-12-15T01:02:49;1.80;99.90
14095;DHT22;18096;48.142;16.290;2022-12-15T01:05:33;1.70;99.90
14095;DHT22;18096;48.142;16.290;2022-12-15T01:08:17;1.70;99.90
14095;DHT22;18096;48.142;16.290;2022-12-15T01:11:02;1.70;99.90
14095;DHT22;18096;48.142;16.290;2022-12-15T01:13:46;1.80;99.90
14095;DHT22;18096;48.142;16.290;2022-12-15T01:16:30;1.90;99.90
14095;DHT22;18096;48.142;16.290;2022-12-15T01:19:14;1.80;99.90
14095;DHT22;18096;48.142;16.290;2022-12-15T01:21:59;1.80;99.90
14095;DHT22;18096;48.142;16.290;2022-12-15T01:24:24;2.00;99.90
14095;DHT22;18096;48.142;16.290;2022-12-15T01:26:50;1.90;99.90
14095;DHT22;18096;48.142;16.290;2022-12-15T01:29:16;1.90;99.90
14095;DHT22;18096;48.142;16.290;2022-12-15T01:31:42;1.90;99.90
14095;DHT22;18096;48.142;16.290;2022-12-15T01:34:08;1.80;99.90
14095;DHT22;18096;48.142;16.290;2022-12-15T01:36:34;1.80;99.90
14095;DHT22;18096;48.142;16.290;2022-12-15T01:39:01;1.80;99.90
14095;DHT22;18096;48.142;16.290;2022-12-15T01:41:28;1.80;99.90
14095;DHT22;18096;48.142;16.290;2022-12-15T01:43:54;1.80;99.90
14095;DHT22;18096;48.142;16.290;2022-12-15T01:46:21;1.80;99.90
14095;DHT22;18096;48.142;16.290;2022-12-15T01:48:56;1.80;99.90
14095;DHT22;18096;48.142;16.290;2022-12-15T01:51:37;1.80;99.90
14095;DHT22;18096;48.142;16.290;2022-12-15T01:54:11;1.90;99.90
14095;DHT22;18096;48.142;16.290;2022-12-15T01:56:44;1.90;99.90
14095;DHT22;18096;48.142;16.290;2022-12-15T01:59:14;1.80;99.90
14095;DHT22;18096;48.142;16.290;2022-12-15T02:01:40;1.80;99.90
14095;DHT22;18096;48.142;16.290;2022-12-15T02:04:07;1.80;99.90
14095;DHT22;18096;48.142;16.290;2022-12-15T02:06:34;1.80;99.90
14095;DHT22;18096;48.142;16.290;2022-12-15T02:09:00;1.80;99.90
14095;DHT22;18096;48.142;16.290;2022-12-15T02:14:44;1.80;99.90
14095;DHT22;18096;48.142;16.290;2022-12-15T02:23:28;1.80;99.90
14095;DHT22;18096;48.142;16.290;2022-12-15T02:26:29;1.80;99.90
14095;DHT22;18096;48.142;16.290;2022-12-15T02:31:59;1.80;99.90
14095;DHT22;18096;48.142;16.290;2022-12-15T02:37:16;1.90;99.90
14095;DHT22;18096;48.142;16.290;2022-12-15T02:39:43;1.80;99.90
14095;DHT22;18096;48.142;16.290;2022-12-15T02:42:09;1.80;99.90
14095;DHT22;18096;48.142;16.290;2022-12-15T02:44:46;1.80;99.90
14095;DHT22;18096;48.142;16.290;2022-12-15T02:47:21;1.80;99.90
14095;DHT22;18096;48.142;16.290;2022-12-15T02:58:41;1.80;99.90
14095;DHT22;18096;48.142;16.290;2022-12-15T03:01:26;1.80;99.90
14095;DHT22;18096;48.142;16.290;2022-12-15T03:03:54;1.80;99.90
14095;DHT22;18096;48.142;16.290;2022-12-15T03:06:23;1.80;99.90
14095;DHT22;18096;48.142;16.290;2022-12-15T03:08:49;1.80;99.90
14095;DHT22;18096;48.142;16.290;2022-12-15T03:11:15;1.80;99.90
14095;DHT22;18096;48.142;16.290;2022-12-15T03:13:41;1.90;99.90
14095;DHT22;18096;48.142;16.290;2022-12-15T03:16:06;1.90;99.90
14095;DHT22;18096;48.142;16.290;2022-12-15T03:18:32;1.90;99.90
14095;DHT22;18096;48.142;16.290;2022-12-15T03:20:58;2.00;99.90
14095;DHT22;18096;48.142;16.290;2022-12-15T03:23:24;2.00;99.90
14095;DHT22;18096;48.142;16.290;2022-12-15T03:25:50;2.00;99.90
14095;DHT22;18096;48.142;16.290;2022-12-15T03:28:34;2.00;99.90
14095;DHT22;18096;48.142;16.290;2022-12-15T03:31:00;2.10;99.90
14095;DHT22;18096;48.142;16.290;2022-12-15T03:33:25;2.00;99.90
14095;DHT22;18096;48.142;16.290;2022-12-15T03:35:51;2.00;99.90
14095;DHT22;18096;48.142;16.290;2022-12-15T03:38:17;1.90;99.90
14095;DHT22;18096;48.142;16.290;2022-12-15T03:40:43;2.00;99.90
14095;DHT22;18096;48.142;16.290;2022-12-15T03:43:08;2.10;99.90
14095;DHT22;18096;48.142;16.290;2022-12-15T03:45:34;2.10;99.90
14095;DHT22;18096;48.142;16.290;2022-12-15T03:48:00;2.10;99.90
14095;DHT22;18096;48.142;16.290;2022-12-15T03:50:27;2.10;99.90
14095;DHT22;18096;48.142;16.290;2022-12-15T03:52:58;2.10;99.90
14095;DHT22;18096;48.142;16.290;2022-12-15T03:55:24;2.10;99.90
14095;DHT22;18096;48.142;16.290;2022-12-15T03:57:51;2.20;99.90
14095;DHT22;18096;48.142;16.290;2022-12-15T04:00:18;2.20;99.90
14095;DHT22;18096;48.142;16.290;2022-12-15T04:02:45;2.10;99.90
14095;DHT22;18096;48.142;16.290;2022-12-15T04:05:21;2.10;99.90
14095;DHT22;18096;48.142;16.290;2022-12-15T04:07:47;2.10;99.90
14095;DHT22;18096;48.142;16.290;2022-12-15T04:10:13;2.10;99.90
14095;DHT22;18096;48.142;16.290;2022-12-15T04:12:39;2.10;99.90
14095;DHT22;18096;48.142;16.290;2022-12-15T04:15:06;2.20;99.90
14095;DHT22;18096;48.142;16.290;2022-12-15T04:17:32;2.10;99.90
14095;DHT22;18096;48.142;16.290;2022-12-15T04:19:58;2.10;99.90
14095;DHT22;18096;48.142;16.290;2022-12-15T04:22:40;2.10;99.90
14095;DHT22;18096;48.142;16.290;2022-12-15T04:25:08;2.10;99.90
14095;DHT22;18096;48.142;16.290;2022-12-15T04:27:53;2.10;99.90
14095;DHT22;18096;48.142;16.290;2022-12-15T04:30:39;2.10;99.90
14095;DHT22;18096;48.142;16.290;2022-12-15T04:33:25;2.00;99.90
14095;DHT22;18096;48.142;16.290;2022-12-15T04:36:11;2.00;99.90
14095;DHT22;18096;48.142;16.290;2022-12-15T04:38:57;2.00;99.90
14095;DHT22;18096;48.142;16.290;2022-12-15T04:41:41;2.00;99.90
14095;DHT22;18096;48.142;16.290;2022-12-15T04:44:26;2.00;99.90
14095;DHT22;18096;48.142;16.290;2022-12-15T04:47:10;2.00;99.90
14095;DHT22;18096;48.142;16.290;2022-12-15T04:49:54;2.00;99.90
14095;DHT22;18096;48.142;16.290;2022-12-15T04:52:39;2.00;99.90
14095;DHT22;18096;48.142;16.290;2022-12-15T04:55:23;2.00;99.90
14095;DHT22;18096;48.142;16.290;2022-12-15T04:58:08;2.00;99.90
14095;DHT22;18096;48.142;16.290;2022-12-15T05:00:53;2.10;99.90
14095;DHT22;18096;48.142;16.290;2022-12-15T05:03:37;2.20;99.90
14095;DHT22;18096;48.142;16.290;2022-12-15T05:06:22;2.00;99.90
14095;DHT22;18096;48.142;16.290;2022-12-15T05:09:06;2.00;99.90
14095;DHT22;18096;48.142;16.290;2022-12-15T05:11:50;2.00;99.90
14095;DHT22;18096;48.142;16.290;2022-12-15T05:14:34;2.00;99.90
14095;DHT22;18096;48.142;16.290;2022-12-15T05:17:19;2.00;99.90
14095;DHT22;18096;48.142;16.290;2022-12-15T05:20:04;2.00;99.90
14095;DHT22;18096;48.142;16.290;2022-12-15T05:22:53;2.00;99.90
14095;DHT22;18096;48.142;16.290;2022-12-15T05:25:38;1.90;99.90
14095;DHT22;18096;48.142;16.290;2022-12-15T05:28:22;1.90;99.90
14095;DHT22;18096;48.142;16.290;2022-12-15T05:31:07;2.00;99.90
14095;DHT22;18096;48.142;16.290;2022-12-15T05:33:53;2.00;99.90
14095;DHT22;18096;48.142;16.290;2022-12-15T05:36:18;2.00;99.90
14095;DHT22;18096;48.142;16.290;2022-12-15T05:38:47;2.10;99.90
14095;DHT22;18096;48.142;16.290;2022-12-15T05:41:13;2.00;99.90
14095;DHT22;18096;48.142;16.290;2022-12-15T05:43:39;2.00;99.90
14095;DHT22;18096;48.142;16.290;2022-12-15T05:46:04;2.00;99.90
14095;DHT22;18096;48.142;16.290;2022-12-15T05:48:30;2.00;99.90
14095;DHT22;18096;48.142;16.290;2022-12-15T05:50:56;2.00;99.90
14095;DHT22;18096;48.142;16.290;2022-12-15T05:53:21;2.00;99.90
14095;DHT22;18096;48.142;16.290;2022-12-15T05:55:47;2.00;99.90
14095;DHT22;18096;48.142;16.290;2022-12-15T05:58:12;2.00;99.90
14095;DHT22;18096;48.142;16.290;2022-12-15T06:00:38;2.00;99.90
14095;DHT22;18096;48.142;16.290;2022-12-15T06:03:04;2.00;99.90
14095;DHT22;18096;48.142;16.290;2022-12-15T06:05:29;2.00;99.90
14095;DHT22;18096;48.142;16.290;2022-12-15T06:07:55;2.00;99.90
14095;DHT22;18096;48.142;16.290;2022-12-15T06:10:21;2.00;99.90
14095;DHT22;18096;48.142;16.290;2022-12-15T06:12:46;2.00;99.90
14095;DHT22;18096;48.142;16.290;2022-12-15T06:15:12;2.10;99.90
14095;DHT22;18096;48.142;16.290;2022-12-15T06:17:38;2.10;99.90
14095;DHT22;18096;48.142;16.290;2022-12-15T06:20:04;2.10;99.90
14095;DHT22;18096;48.142;16.290;2022-12-15T06:22:29;2.10;99.90
14095;DHT22;18096;48.142;16.290;2022-12-15T06:24:55;2.10;99.90
14095;DHT22;18096;48.142;16.290;2022-12-15T06:27:21;2.10;99.90
14095;DHT22;18096;48.142;16.290;2022-12-15T06:29:46;2.10;99.90
14095;DHT22;18096;48.142;16.290;2022-12-15T06:32:12;2.10;99.90
14095;DHT22;18096;48.142;16.290;2022-12-15T06:34:38;2.20;99.90
14095;DHT22;18096;48.142;16.290;2022-12-15T06:37:03;2.10;99.90
14095;DHT22;18096;48.142;16.290;2022-12-15T06:39:29;2.10;99.90
14095;DHT22;18096;48.142;16.290;2022-12-15T06:41:54;2.10;99.90
14095;DHT22;18096;48.142;16.290;2022-12-15T06:44:20;2.10;99.90
14095;DHT22;18096;48.142;16.290;2022-12-15T06:46:46;2.10;99.90
14095;DHT22;18096;48.142;16.290;2022-12-15T06:49:12;2.10;99.90
14095;DHT22;18096;48.142;16.290;2022-12-15T06:51:37;2.10;99.90
14095;DHT22;18096;48.142;16.290;2022-12-15T06:54:03;2.10;99.90
14095;DHT22;18096;48.142;16.290;2022-12-15T06:56:33;2.10;99.90
14095;DHT22;18096;48.142;16.290;2022-12-15T06:59:03;2.10;99.90
14095;DHT22;18096;48.142;16.290;2022-12-15T07:01:30;2.20;99.90
14095;DHT22;18096;48.142;16.290;2022-12-15T07:03:57;2.20;99.90
14095;DHT22;18096;48.142;16.290;2022-12-15T07:06:30;2.20;99.90
14095;DHT22;18096;48.142;16.290;2022-12-15T07:08:56;2.20;99.90
14095;DHT22;18096;48.142;16.290;2022-12-15T07:11:22;2.30;99.90
14095;DHT22;18096;48.142;16.290;2022-12-15T07:13:51;2.40;99.90
14095;DHT22;18096;48.142;16.290;2022-12-15T07:16:18;2.30;99.90
14095;DHT22;18096;48.142;16.290;2022-12-15T07:18:44;2.30;99.90
14095;DHT22;18096;48.142;16.290;2022-12-15T07:21:10;2.20;99.90
14095;DHT22;18096;48.142;16.290;2022-12-15T07:23:36;2.20;99.90
14095;DHT22;18096;48.142;16.290;2022-12-15T07:26:06;2.20;99.90
14095;DHT22;18096;48.142;16.290;2022-12-15T07:28:34;2.20;99.90
14095;DHT22;18096;48.142;16.290;2022-12-15T07:31:06;2.20;99.90
14095;DHT22;18096;48.142;16.290;2022-12-15T07:33:33;2.20;99.90
14095;DHT22;18096;48.142;16.290;2022-12-15T07:36:00;2.20;99.90
14095;DHT22;18096;48.142;16.290;2022-12-15T07:38:27;2.10;99.90
14095;DHT22;18096;48.142;16.290;2022-12-15T07:40:53;2.20;99.90
14095;DHT22;18096;48.142;16.290;2022-12-15T07:43:20;2.20;99.90
14095;DHT22;18096;48.142;16.290;2022-12-15T07:45:53;2.20;99.90
14095;DHT22;18096;48.142;16.290;2022-12-15T07:48:18;2.30;99.90
14095;DHT22;18096;48.142;16.290;2022-12-15T07:50:44;2.30;99.90
14095;DHT22;18096;48.142;16.290;2022-12-15T07:53:10;2.30;99.90
14095;DHT22;18096;48.142;16.290;2022-12-15T07:55:36;2.40;99.90
14095;DHT22;18096;48.142;16.290;2022-12-15T07:58:01;2.30;99.90
14095;DHT22;18096;48.142;16.290;2022-12-15T08:00:27;2.30;99.90
14095;DHT22;18096;48.142;16.290;2022-12-15T08:02:53;2.30;99.90
14095;DHT22;18096;48.142;16.290;2022-12-15T08:05:19;2.30;99.90
14095;DHT22;18096;48.142;16.290;2022-12-15T08:07:44;2.30;99.90
14095;DHT22;18096;48.142;16.290;2022-12-15T08:10:11;2.40;99.90
14095;DHT22;18096;48.142;16.290;2022-12-15T08:12:36;2.40;99.90
14095;DHT22;18096;48.142;16.290;2022-12-15T08:15:03;2.40;99.90
14095;DHT22;18096;48.142;16.290;2022-12-15T08:17:28;2.40;99.90
14095;DHT22;18096;48.142;16.290;2022-12-15T08:19:54;2.40;99.90
14095;DHT22;18096;48.142;16.290;2022-12-15T08:22:20;2.40;99.90
14095;DHT22;18096;48.142;16.290;2022-12-15T08:24:45;2.50;99.90
14095;DHT22;18096;48.142;16.290;2022-12-15T08:27:12;2.50;99.90
14095;DHT22;18096;48.142;16.290;2022-12-15T08:29:38;2.50;99.90
14095;DHT22;18096;48.142;16.290;2022-12-15T08:32:04;2.50;99.90
14095;DHT22;18096;48.142;16.290;2022-12-15T08:34:29;2.50;99.90
14095;DHT22;18096;48.142;16.290;2022-12-15T08:36:55;2.50;99.90
14095;DHT22;18096;48.142;16.290;2022-12-15T08:39:21;2.50;99.90
14095;DHT22;18096;48.142;16.290;2022-12-15T08:41:46;2.50;99.90
14095;DHT22;18096;48.142;16.290;2022-12-15T08:44:12;2.60;99.90
14095;DHT22;18096;48.142;16.290;2022-12-15T08:46:38;2.50;99.90
14095;DHT22;18096;48.142;16.290;2022-12-15T08:49:04;2.50;99.90
14095;DHT22;18096;48.142;16.290;2022-12-15T08:51:31;2.60;99.90
14095;DHT22;18096;48.142;16.290;2022-12-15T08:53:58;2.60;99.90
14095;DHT22;18096;48.142;16.290;2022-12-15T08:56:24;2.60;99.90
14095;DHT22;18096;48.142;16.290;2022-12-15T08:58:55;2.60;99.90
14095;DHT22;18096;48.142;16.290;2022-12-15T09:01:22;2.70;99.90
14095;DHT22;18096;48.142;16.290;2022-12-15T09:03:49;2.70;99.90
14095;DHT22;18096;48.142;16.290;2022-12-15T09:06:41;2.70;99.90
14095;DHT22;18096;48.142;16.290;2022-12-15T09:09:10;2.80;99.90
14095;DHT22;18096;48.142;16.290;2022-12-15T09:11:36;2.80;99.90
14095;DHT22;18096;48.142;16.290;2022-12-15T09:14:03;2.80;99.90
14095;DHT22;18096;48.142;16.290;2022-12-15T09:16:28;2.90;99.90
14095;DHT22;18096;48.142;16.290;2022-12-15T09:18:57;2.90;99.90
14095;DHT22;18096;48.142;16.290;2022-12-15T09:21:26;3.00;99.90
14095;DHT22;18096;48.142;16.290;2022-12-15T09:23:54;3.00;99.90
14095;DHT22;18096;48.142;16.290;2022-12-15T09:26:21;3.10;99.90
14095;DHT22;18096;48.142;16.290;2022-12-15T09:28:48;3.10;99.90
14095;DHT22;18096;48.142;16.290;2022-12-15T09:31:25;3.20;99.90
14095;DHT22;18096;48.142;16.290;2022-12-15T09:33:53;3.30;99.90
14095;DHT22;18096;48.142;16.290;2022-12-15T09:36:20;3.30;99.90
14095;DHT22;18096;48.142;16.290;2022-12-15T09:38:46;3.20;99.90
14095;DHT22;18096;48.142;16.290;2022-12-15T09:43:54;3.20;99.90
14095;DHT22;18096;48.142;16.290;2022-12-15T09:48:53;3.10;99.90
14095;DHT22;18096;48.142;16.290;2022-12-15T09:51:28;3.10;99.90
14095;DHT22;18096;48.142;16.290;2022-12-15T09:53:54;3.10;99.90
14095;DHT22;18096;48.142;16.290;2022-12-15T09:56:31;3.10;99.90
14095;DHT22;18096;48.142;16.290;2022-12-15T09:59:13;3.10;99.90
14095;DHT22;18096;48.142;16.290;2022-12-15T10:02:02;3.20;99.90
14095;DHT22;18096;48.142;16.290;2022-12-15T10:07:43;3.30;99.90
14095;DHT22;18096;48.142;16.290;2022-12-15T10:10:39;3.40;99.90
14095;DHT22;18096;48.142;16.290;2022-12-15T10:16:26;3.50;99.90
14095;DHT22;18096;48.142;16.290;2022-12-15T10:19:00;3.50;99.90
14095;DHT22;18096;48.142;16.290;2022-12-15T10:21:29;3.50;99.90
14095;DHT22;18096;48.142;16.290;2022-12-15T10:24:00;3.40;99.90
14095;DHT22;18096;48.142;16.290;2022-12-15T10:26:33;3.50;99.90
14095;DHT22;18096;48.142;16.290;2022-12-15T10:29:17;3.50;99.90
14095;DHT22;18096;48.142;16.290;2022-12-15T10:32:04;3.40;99.90
14095;DHT22;18096;48.142;16.290;2022-12-15T10:34:35;3.40;99.90
14095;DHT22;18096;48.142;16.290;2022-12-15T10:37:03;3.40;99.90
14095;DHT22;18096;48.142;16.290;2022-12-15T10:39:38;3.30;99.90
14095;DHT22;18096;48.142;16.290;2022-12-15T10:42:10;3.20;99.90
14095;DHT22;18096;48.142;16.290;2022-12-15T10:44:38;3.30;99.90
14095;DHT22;18096;48.142;16.290;2022-12-15T10:47:10;3.30;99.90
14095;DHT22;18096;48.142;16.290;2022-12-15T10:49:36;3.30;99.90
14095;DHT22;18096;48.142;16.290;2022-12-15T10:52:02;3.30;99.90
14095;DHT22;18096;48.142;16.290;2022-12-15T10:54:35;3.30;99.90
14095;DHT22;18096;48.142;16.290;2022-12-15T10:57:19;3.30;99.90
14095;DHT22;18096;48.142;16.290;2022-12-15T10:59:45;3.20;99.90
14095;DHT22;18096;48.142;16.290;2022-12-15T11:10:26;3.20;99.90
14095;DHT22;18096;48.142;16.290;2022-12-15T11:13:15;3.10;99.90
14095;DHT22;18096;48.142;16.290;2022-12-15T11:15:51;3.10;99.90
14095;DHT22;18096;48.142;16.290;2022-12-15T11:21:00;3.00;99.90
14095;DHT22;18096;48.142;16.290;2022-12-15T11:23:39;2.90;99.90
14095;DHT22;18096;48.142;16.290;2022-12-15T11:26:27;2.90;99.90
14095;DHT22;18096;48.142;16.290;2022-12-15T11:29:25;3.00;99.90
14095;DHT22;18096;48.142;16.290;2022-12-15T11:31:53;3.00;99.90
14095;DHT22;18096;48.142;16.290;2022-12-15T11:34:22;3.10;99.90
14095;DHT22;18096;48.142;16.290;2022-12-15T11:45:23;3.00;99.90
14095;DHT22;18096;48.142;16.290;2022-12-15T11:48:14;3.00;99.90
14095;DHT22;18096;48.142;16.290;2022-12-15T11:50:55;2.90;99.90
14095;DHT22;18096;48.142;16.290;2022-12-15T11:56:38;3.00;99.90
14095;DHT22;18096;48.142;16.290;2022-12-15T12:02:39;3.00;99.90
14095;DHT22;18096;48.142;16.290;2022-12-15T12:07:48;3.00;99.90
14095;DHT22;18096;48.142;16.290;2022-12-15T12:15:53;3.00;99.90
14095;DHT22;18096;48.142;16.290;2022-12-15T12:18:46;3.10;99.90
14095;DHT22;18096;48.142;16.290;2022-12-15T12:21:11;3.10;99.90
14095;DHT22;18096;48.142;16.290;2022-12-15T12:23:52;3.10;99.90
14095;DHT22;18096;48.142;16.290;2022-12-15T12:26:28;3.00;99.90
14095;DHT22;18096;48.142;16.290;2022-12-15T12:39:50;3.00;99.90
14095;DHT22;18096;48.142;16.290;2022-12-15T12:42:34;3.00;99.90
14095;DHT22;18096;48.142;16.290;2022-12-15T12:45:04;3.00;99.90
14095;DHT22;18096;48.142;16.290;2022-12-15T12:47:35;3.10;99.90
14095;DHT22;18096;48.142;16.290;2022-12-15T12:50:24;3.10;99.90
14095;DHT22;18096;48.142;16.290;2022-12-15T12:52:53;3.00;99.90
14095;DHT22;18096;48.142;16.290;2022-12-15T12:55:35;3.00;99.90
14095;DHT22;18096;48.142;16.290;2022-12-15T12:58:02;3.00;99.90
14095;DHT22;18096;48.142;16.290;2022-12-15T13:00:29;3.00;99.90
14095;DHT22;18096;48.142;16.290;2022-12-15T13:05:39;2.90;99.90
14095;DHT22;18096;48.142;16.290;2022-12-15T13:10:35;3.00;99.90
14095;DHT22;18096;48.142;16.290;2022-12-15T13:16:18;3.00;99.90
14095;DHT22;18096;48.142;16.290;2022-12-15T13:19:05;2.90;99.90
14095;DHT22;18096;48.142;16.290;2022-12-15T13:27:01;2.90;99.90
14095;DHT22;18096;48.142;16.290;2022-12-15T13:29:27;2.90;99.90
14095;DHT22;18096;48.142;16.290;2022-12-15T13:31:53;2.90;99.90
14095;DHT22;18096;48.142;16.290;2022-12-15T13:34:23;2.90;99.90
14095;DHT22;18096;48.142;16.290;2022-12-15T13:36:52;2.90;99.90
14095;DHT22;18096;48.142;16.290;2022-12-15T13:47:21;2.80;99.90
14095;DHT22;18096;48.142;16.290;2022-12-15T13:52:31;2.80;99.90
14095;DHT22;18096;48.142;16.290;2022-12-15T13:55:00;2.80;99.90
14095;DHT22;18096;48.142;16.290;2022-12-15T13:57:30;2.80;99.90
14095;DHT22;18096;48.142;16.290;2022-12-15T14:00:08;2.80;99.90
14095;DHT22;18096;48.142;16.290;2022-12-15T14:02:43;2.70;99.90
14095;DHT22;18096;48.142;16.290;2022-12-15T14:07:40;2.70;99.90
14095;DHT22;18096;48.142;16.290;2022-12-15T14:10:25;2.70;99.90
14095;DHT22;18096;48.142;16.290;2022-12-15T14:12:54;2.70;99.90
14095;DHT22;18096;48.142;16.290;2022-12-15T14:15:27;2.70;99.90
14095;DHT22;18096;48.142;16.290;2022-12-15T14:17:55;2.80;99.90
14095;DHT22;18096;48.142;16.290;2022-12-15T14:20:24;2.70;99.90
14095;DHT22;18096;48.142;16.290;2022-12-15T14:22:50;2.70;99.90
14095;DHT22;18096;48.142;16.290;2022-12-15T14:27:48;2.70;99.90
14095;DHT22;18096;48.142;16.290;2022-12-15T14:30:17;2.80;99.90
14095;DHT22;18096;48.142;16.290;2022-12-15T14:32:46;2.70;99.90
14095;DHT22;18096;48.142;16.290;2022-12-15T14:35:43;2.70;99.90
14095;DHT22;18096;48.142;16.290;2022-12-15T14:38:20;2.70;99.90
14095;DHT22;18096;48.142;16.290;2022-12-15T14:40:48;2.70;99.90
14095;DHT22;18096;48.142;16.290;2022-12-15T14:43:36;2.60;99.90
14095;DHT22;18096;48.142;16.290;2022-12-15T14:46:21;2.60;99.90
14095;DHT22;18096;48.142;16.290;2022-12-15T14:48:54;2.50;99.90
14095;DHT22;18096;48.142;16.290;2022-12-15T14:51:21;2.50;99.90
14095;DHT22;18096;48.142;16.290;2022-12-15T14:53:50;2.50;99.90
14095;DHT22;18096;48.142;16.290;2022-12-15T14:59:01;2.50;99.90
14095;DHT22;18096;48.142;16.290;2022-12-15T15:04:28;2.50;99.90
14095;DHT22;18096;48.142;16.290;2022-12-15T15:07:00;2.40;99.90
14095;DHT22;18096;48.142;16.290;2022-12-15T15:09:32;2.50;99.90
14095;DHT22;18096;48.142;16.290;2022-12-15T15:14:38;2.40;99.90
14095;DHT22;18096;48.142;16.290;2022-12-15T15:17:24;2.40;99.90
14095;DHT22;18096;48.142;16.290;2022-12-15T15:19:54;2.50;99.90
14095;DHT22;18096;48.142;16.290;2022-12-15T15:22:32;2.50;99.90
14095;DHT22;18096;48.142;16.290;2022-12-15T15:24:58;2.50;99.90
14095;DHT22;18096;48.142;16.290;2022-12-15T15:27:37;2.40;99.90
14095;DHT22;18096;48.142;16.290;2022-12-15T15:32:58;2.50;99.90
14095;DHT22;18096;48.142;16.290;2022-12-15T15:35:33;2.50;99.90
14095;DHT22;18096;48.142;16.290;2022-12-15T15:38:34;2.50;99.90
14095;DHT22;18096;48.142;16.290;2022-12-15T15:41:26;2.50;99.90
14095;DHT22;18096;48.142;16.290;2022-12-15T15:43:54;2.50;99.90
14095;DHT22;18096;48.142;16.290;2022-12-15T15:46:27;2.50;99.90
14095;DHT22;18096;48.142;16.290;2022-12-15T15:48:56;2.50;99.90
14095;DHT22;18096;48.142;16.290;2022-12-15T15:51:24;2.50;99.90
14095;DHT22;18096;48.142;16.290;2022-12-15T15:53:50;2.50;99.90
14095;DHT22;18096;48.142;16.290;2022-12-15T15:56:17;2.50;99.90
14095;DHT22;18096;48.142;16.290;2022-12-15T15:58:43;2.50;99.90
14095;DHT22;18096;48.142;16.290;2022-12-15T16:01:09;2.50;99.90
14095;DHT22;18096;48.142;16.290;2022-12-15T16:03:36;2.50;99.90
14095;DHT22;18096;48.142;16.290;2022-12-15T16:06:03;2.50;99.90
14095;DHT22;18096;48.142;16.290;2022-12-15T16:08:33;2.40;99.90
14095;DHT22;18096;48.142;16.290;2022-12-15T16:11:00;2.40;99.90
14095;DHT22;18096;48.142;16.290;2022-12-15T16:13:26;2.40;99.90
14095;DHT22;18096;48.142;16.290;2022-12-15T16:15:52;2.40;99.90
14095;DHT22;18096;48.142;16.290;2022-12-15T16:18:18;2.50;99.90
14095;DHT22;18096;48.142;16.290;2022-12-15T16:20:48;2.50;99.90
14095;DHT22;18096;48.142;16.290;2022-12-15T16:23:17;2.30;99.90
14095;DHT22;18096;48.142;16.290;2022-12-15T16:25:50;2.20;99.90
14095;DHT22;18096;48.142;16.290;2022-12-15T16:28:20;2.30;99.90
14095;DHT22;18096;48.142;16.290;2022-12-15T16:30:46;2.30;99.90
14095;DHT22;18096;48.142;16.290;2022-12-15T16:33:12;2.30;99.90
14095;DHT22;18096;48.142;16.290;2022-12-15T16:35:39;2.40;99.90
14095;DHT22;18096;48.142;16.290;2022-12-15T16:38:12;2.40;99.90
14095;DHT22;18096;48.142;16.290;2022-12-15T16:40:38;2.40;99.90
14095;DHT22;18096;48.142;16.290;2022-12-15T16:43:13;2.40;99.90
14095;DHT22;18096;48.142;16.290;2022-12-15T16:45:42;2.40;99.90
14095;DHT22;18096;48.142;16.290;2022-12-15T16:48:09;2.30;99.90
14095;DHT22;18096;48.142;16.290;2022-12-15T16:50:37;2.40;99.90
14095;DHT22;18096;48.142;16.290;2022-12-15T16:53:05;2.40;99.90
14095;DHT22;18096;48.142;16.290;2022-12-15T16:55:32;2.40;99.90
14095;DHT22;18096;48.142;16.290;2022-12-15T16:58:02;2.30;99.90
14095;DHT22;18096;48.142;16.290;2022-12-15T17:00:34;2.40;99.90
14095;DHT22;18096;48.142;16.290;2022-12-15T17:03:01;2.40;99.90
14095;DHT22;18096;48.142;16.290;2022-12-15T17:05:34;2.40;99.90
14095;DHT22;18096;48.142;16.290;2022-12-15T17:08:04;2.40;99.90
14095;DHT22;18096;48.142;16.290;2022-12-15T17:10:31;2.50;99.90
14095;DHT22;18096;48.142;16.290;2022-12-15T17:13:03;2.40;99.90
14095;DHT22;18096;48.142;16.290;2022-12-15T17:15:30;2.40;99.90
14095;DHT22;18096;48.142;16.290;2022-12-15T17:17:55;2.40;99.90
14095;DHT22;18096;48.142;16.290;2022-12-15T17:20:31;2.30;99.90
14095;DHT22;18096;48.142;16.290;2022-12-15T17:23:06;2.30;99.90
14095;DHT22;18096;48.142;16.290;2022-12-15T17:25:44;2.30;99.90
14095;DHT22;18096;48.142;16.290;2022-12-15T17:28:23;2.30;99.90
14095;DHT22;18096;48.142;16.290;2022-12-15T17:30:50;2.40;99.90
14095;DHT22;18096;48.142;16.290;2022-12-15T17:33:21;2.40;99.90
14095;DHT22;18096;48.142;16.290;2022-12-15T17:35:50;2.40;99.90
14095;DHT22;18096;48.142;16.290;2022-12-15T17:38:19;2.40;99.90
14095;DHT22;18096;48.142;16.290;2022-12-15T17:40:46;2.40;99.90
14095;DHT22;18096;48.142;16.290;2022-12-15T17:43:17;2.40;99.90
14095;DHT22;18096;48.142;16.290;2022-12-15T17:45:44;2.40;99.90
14095;DHT22;18096;48.142;16.290;2022-12-15T17:48:11;2.40;99.90
14095;DHT22;18096;48.142;16.290;2022-12-15T17:50:37;2.40;99.90
14095;DHT22;18096;48.142;16.290;2022-12-15T17:53:04;2.40;99.90
14095;DHT22;18096;48.142;16.290;2022-12-15T17:55:31;2.30;99.90
14095;DHT22;18096;48.142;16.290;2022-12-15T17:57:58;2.40;99.90
14095;DHT22;18096;48.142;16.290;2022-12-15T18:00:27;2.40;99.90